map of BLR home
BLR - Airport
Location
City:  Bangalore, Karnataka, India
Near (Alt.):Bengaluru, Devanahalli
Name:Kempegowda International Airport
Old (Alt.):Bengaluru International Airport
ICAO:VOBL
IATA:BLR

Details
Type:Airport (Aerodrome, Airfield)
Use:Public/Civil, International (customs port of entry)
Latitude:1311'56"N (13.198867)
Longitude:7742'20"E (77.705472)
Elevation:3001 ft (915 m)
Variation:1.22W (WMM2015 magnetic declination)
0.07 annual change
Runways:1
Longest:13451 × 148 ft (4100 × 45 m), paved

Time
Time Zone:UTC+5:30
Local Time:

Weather
METAR:VOBL 260900Z 32008KT 230V030 9999 SCT015 32/20 Q1010 NOSIG

Related Locations
Nearby:
Farthest:IPC: 11367 mi / 18294 km
Easter Island (Isla de Pascua, Rapa Nui) [Mataveri Intl], VS, CL

Find:

   beyond  
but within

Other Information
Maps:
NOTAMs:
Links:
Sources:

  
flag of India   

Sectional Chart

Flight Planning
at skyvector.com

Satellite Image

Google Maps Satellite view

 

Copyright © 2004-2017 Karl L. Swartz. All rights reserved.
The Great Circle Mapper name and logo are trademarks of the Great Circle Mapper.
All other trademarks mentioned herein belong to their respective owners.
Please see credits for attibutions and further copyright information.

  Follow gcmap on Facebook Follow gcmap on Twitter Follow gcmap on Google+ GCmap on LinkedIn

hCard Microformat

Geo Microformat